sensor_id;sensor_type;location;lat;lon;timestamp;pressure;altitude;pressure_sealevel;temperature;humidity
9225;BME280;4647;48.072;11.616;2023-06-22T00:00:34;95348.31;;;20.13;68.94
9225;BME280;4647;48.072;11.616;2023-06-22T00:03:04;95331.28;;;20.00;68.92
9225;BME280;4647;48.072;11.616;2023-06-22T00:05:32;95334.22;;;19.96;69.03
9225;BME280;4647;48.072;11.616;2023-06-22T00:08:03;95341.81;;;20.01;69.20
9225;BME280;4647;48.072;11.616;2023-06-22T00:10:32;95344.88;;;20.03;68.87
9225;BME280;4647;48.072;11.616;2023-06-22T00:13:01;95344.09;;;20.03;68.91
9225;BME280;4647;48.072;11.616;2023-06-22T00:15:32;95341.25;;;19.97;68.95
9225;BME280;4647;48.072;11.616;2023-06-22T00:18:00;95348.44;;;19.95;69.20
9225;BME280;4647;48.072;11.616;2023-06-22T00:20:29;95346.50;;;19.86;69.77
9225;BME280;4647;48.072;11.616;2023-06-22T00:22:59;95343.94;;;19.82;70.18
9225;BME280;4647;48.072;11.616;2023-06-22T00:25:27;95346.28;;;19.75;69.82
9225;BME280;4647;48.072;11.616;2023-06-22T00:27:55;95353.19;;;19.70;70.12
9225;BME280;4647;48.072;11.616;2023-06-22T00:30:24;95351.53;;;19.63;70.41
9225;BME280;4647;48.072;11.616;2023-06-22T00:32:55;95353.19;;;19.70;70.72
9225;BME280;4647;48.072;11.616;2023-06-22T00:35:24;95353.66;;;19.69;70.30
9225;BME280;4647;48.072;11.616;2023-06-22T00:37:54;95343.28;;;19.63;71.02
9225;BME280;4647;48.072;11.616;2023-06-22T00:40:25;95342.09;;;19.65;70.54
9225;BME280;4647;48.072;11.616;2023-06-22T00:42:54;95343.34;;;19.54;71.09
9225;BME280;4647;48.072;11.616;2023-06-22T00:45:23;95351.41;;;19.58;71.20
9225;BME280;4647;48.072;11.616;2023-06-22T00:47:52;95344.72;;;19.50;71.23
9225;BME280;4647;48.072;11.616;2023-06-22T00:50:26;95337.78;;;19.30;72.00
9225;BME280;4647;48.072;11.616;2023-06-22T00:53:00;95343.28;;;19.30;72.34
9225;BME280;4647;48.072;11.616;2023-06-22T00:55:33;95345.28;;;19.30;72.00
9225;BME280;4647;48.072;11.616;2023-06-22T00:58:04;95337.69;;;19.16;72.47
9225;BME280;4647;48.072;11.616;2023-06-22T01:00:36;95344.75;;;19.17;72.49
9225;BME280;4647;48.072;11.616;2023-06-22T01:03:04;95336.78;;;19.19;73.00
9225;BME280;4647;48.072;11.616;2023-06-22T01:05:37;95322.41;;;19.24;72.26
9225;BME280;4647;48.072;11.616;2023-06-22T01:08:12;95325.03;;;19.18;73.04
9225;BME280;4647;48.072;11.616;2023-06-22T01:10:48;95316.25;;;19.05;73.42
9225;BME280;4647;48.072;11.616;2023-06-22T01:13:28;95326.41;;;19.14;72.69
9225;BME280;4647;48.072;11.616;2023-06-22T01:16:01;95325.81;;;19.19;72.55
9225;BME280;4647;48.072;11.616;2023-06-22T01:18:31;95312.56;;;19.08;73.00
9225;BME280;4647;48.072;11.616;2023-06-22T01:21:04;95315.94;;;19.03;73.12
9225;BME280;4647;48.072;11.616;2023-06-22T01:23:50;95316.69;;;19.04;73.31
9225;BME280;4647;48.072;11.616;2023-06-22T01:26:24;95311.88;;;18.89;73.83
9225;BME280;4647;48.072;11.616;2023-06-22T01:28:59;95308.81;;;18.87;73.69
9225;BME280;4647;48.072;11.616;2023-06-22T01:31:29;95309.03;;;18.75;74.53
9225;BME280;4647;48.072;11.616;2023-06-22T01:34:02;95306.59;;;18.67;74.98
9225;BME280;4647;48.072;11.616;2023-06-22T01:36:32;95304.47;;;18.72;74.60
9225;BME280;4647;48.072;11.616;2023-06-22T01:39:02;95296.84;;;18.66;74.74
9225;BME280;4647;48.072;11.616;2023-06-22T01:41:34;95294.84;;;18.67;74.58
9225;BME280;4647;48.072;11.616;2023-06-22T01:44:06;95276.25;;;18.71;74.51
9225;BME280;4647;48.072;11.616;2023-06-22T01:46:36;95282.81;;;18.64;74.68
9225;BME280;4647;48.072;11.616;2023-06-22T01:49:05;95281.63;;;18.47;75.13
9225;BME280;4647;48.072;11.616;2023-06-22T01:51:34;95273.25;;;18.41;75.64
9225;BME280;4647;48.072;11.616;2023-06-22T01:54:03;95283.63;;;18.47;75.24
9225;BME280;4647;48.072;11.616;2023-06-22T01:56:31;95282.81;;;18.55;75.28
9225;BME280;4647;48.072;11.616;2023-06-22T01:59:07;95283.28;;;18.45;75.65
9225;BME280;4647;48.072;11.616;2023-06-22T02:01:42;95287.88;;;18.48;75.27
9225;BME280;4647;48.072;11.616;2023-06-22T02:04:13;95277.38;;;18.46;75.17
9225;BME280;4647;48.072;11.616;2023-06-22T02:06:45;95288.66;;;18.48;75.39
9225;BME280;4647;48.072;11.616;2023-06-22T02:09:17;95278.41;;;18.58;74.56
9225;BME280;4647;48.072;11.616;2023-06-22T02:11:46;95285.56;;;18.55;75.14
9225;BME280;4647;48.072;11.616;2023-06-22T02:14:19;95280.13;;;18.46;75.33
9225;BME280;4647;48.072;11.616;2023-06-22T02:16:49;95285.28;;;18.53;75.44
9225;BME280;4647;48.072;11.616;2023-06-22T02:19:22;95281.91;;;18.58;74.66
9225;BME280;4647;48.072;11.616;2023-06-22T02:21:51;95280.06;;;18.64;74.74
9225;BME280;4647;48.072;11.616;2023-06-22T02:24:19;95281.44;;;18.60;75.01
9225;BME280;4647;48.072;11.616;2023-06-22T02:26:49;95291.66;;;18.68;74.69
9225;BME280;4647;48.072;11.616;2023-06-22T02:29:20;95291.97;;;18.70;75.17
9225;BME280;4647;48.072;11.616;2023-06-22T02:31:48;95273.53;;;18.53;74.85
9225;BME280;4647;48.072;11.616;2023-06-22T02:34:17;95303.25;;;18.73;74.96
9225;BME280;4647;48.072;11.616;2023-06-22T02:36:46;95302.34;;;18.57;75.65
9225;BME280;4647;48.072;11.616;2023-06-22T02:39:17;95311.03;;;18.65;75.30
9225;BME280;4647;48.072;11.616;2023-06-22T02:41:45;95313.16;;;18.61;75.43
9225;BME280;4647;48.072;11.616;2023-06-22T02:44:14;95313.03;;;18.46;76.44
9225;BME280;4647;48.072;11.616;2023-06-22T02:46:46;95323.84;;;18.50;75.92
9225;BME280;4647;48.072;11.616;2023-06-22T02:49:14;95323.22;;;18.64;75.24
9225;BME280;4647;48.072;11.616;2023-06-22T02:51:45;95325.97;;;18.64;76.14
9225;BME280;4647;48.072;11.616;2023-06-22T02:54:14;95315.31;;;18.48;77.31
9225;BME280;4647;48.072;11.616;2023-06-22T02:56:43;95311.84;;;18.29;77.90
9225;BME280;4647;48.072;11.616;2023-06-22T02:59:12;95322.66;;;18.32;77.47
9225;BME280;4647;48.072;11.616;2023-06-22T03:01:40;95322.63;;;18.41;77.52
9225;BME280;4647;48.072;11.616;2023-06-22T03:04:13;95318.53;;;18.37;77.76
9225;BME280;4647;48.072;11.616;2023-06-22T03:06:41;95315.31;;;18.48;76.83
9225;BME280;4647;48.072;11.616;2023-06-22T03:09:09;95317.19;;;18.23;77.56
9225;BME280;4647;48.072;11.616;2023-06-22T03:11:38;95320.81;;;18.38;77.66
9225;BME280;4647;48.072;11.616;2023-06-22T03:14:06;95309.38;;;18.49;76.68
9225;BME280;4647;48.072;11.616;2023-06-22T03:16:35;95317.88;;;18.60;76.01
9225;BME280;4647;48.072;11.616;2023-06-22T03:19:03;95308.91;;;18.51;76.32
9225;BME280;4647;48.072;11.616;2023-06-22T03:21:34;95315.03;;;18.46;76.84
9225;BME280;4647;48.072;11.616;2023-06-22T03:24:05;95311.94;;;18.53;76.49
9225;BME280;4647;48.072;11.616;2023-06-22T03:26:34;95309.84;;;18.48;76.41
9225;BME280;4647;48.072;11.616;2023-06-22T03:29:02;95308.00;;;18.54;76.72
9225;BME280;4647;48.072;11.616;2023-06-22T03:31:31;95314.84;;;18.58;76.38
9225;BME280;4647;48.072;11.616;2023-06-22T03:33:59;95292.16;;;18.39;77.15
9225;BME280;4647;48.072;11.616;2023-06-22T03:36:28;95309.66;;;18.51;76.51
9225;BME280;4647;48.072;11.616;2023-06-22T03:39:01;95307.81;;;18.57;76.31
9225;BME280;4647;48.072;11.616;2023-06-22T03:41:29;95308.41;;;18.61;76.03
9225;BME280;4647;48.072;11.616;2023-06-22T03:43:57;95300.63;;;18.69;75.28
9225;BME280;4647;48.072;11.616;2023-06-22T03:46:26;95304.59;;;18.77;75.44
9225;BME280;4647;48.072;11.616;2023-06-22T03:48:54;95305.03;;;18.85;75.60
9225;BME280;4647;48.072;11.616;2023-06-22T03:51:23;95307.81;;;19.09;74.42
9225;BME280;4647;48.072;11.616;2023-06-22T03:53:51;95307.47;;;19.16;74.44
9225;BME280;4647;48.072;11.616;2023-06-22T03:56:22;95315.72;;;19.49;72.89
9225;BME280;4647;48.072;11.616;2023-06-22T03:58:50;95308.78;;;19.62;72.04
9225;BME280;4647;48.072;11.616;2023-06-22T04:01:19;95319.94;;;19.83;71.50
9225;BME280;4647;48.072;11.616;2023-06-22T04:03:47;95318.63;;;20.17;69.98
9225;BME280;4647;48.072;11.616;2023-06-22T04:06:16;95319.47;;;20.47;68.80
9225;BME280;4647;48.072;11.616;2023-06-22T04:08:45;95322.78;;;20.80;67.79
9225;BME280;4647;48.072;11.616;2023-06-22T04:11:18;95326.91;;;21.20;66.43
9225;BME280;4647;48.072;11.616;2023-06-22T04:13:49;95326.66;;;21.33;65.61
9225;BME280;4647;48.072;11.616;2023-06-22T04:16:17;95312.19;;;21.38;65.08
9225;BME280;4647;48.072;11.616;2023-06-22T04:18:45;95323.06;;;21.82;63.75
9225;BME280;4647;48.072;11.616;2023-06-22T04:21:14;95307.19;;;21.77;63.51
9225;BME280;4647;48.072;11.616;2023-06-22T04:23:42;95327.19;;;21.92;63.28
9225;BME280;4647;48.072;11.616;2023-06-22T04:26:11;95316.22;;;21.98;63.31
9225;BME280;4647;48.072;11.616;2023-06-22T04:28:40;95313.06;;;21.85;63.88
9225;BME280;4647;48.072;11.616;2023-06-22T04:31:11;95322.31;;;22.02;64.02
9225;BME280;4647;48.072;11.616;2023-06-22T04:33:39;95315.47;;;22.18;62.78
9225;BME280;4647;48.072;11.616;2023-06-22T04:36:07;95321.59;;;22.48;62.42
9225;BME280;4647;48.072;11.616;2023-06-22T04:38:38;95320.75;;;22.67;61.57
9225;BME280;4647;48.072;11.616;2023-06-22T04:41:07;95323.09;;;22.75;61.59
9225;BME280;4647;48.072;11.616;2023-06-22T04:43:48;95305.19;;;22.44;62.33
9225;BME280;4647;48.072;11.616;2023-06-22T04:46:22;95313.34;;;23.11;60.47
9225;BME280;4647;48.072;11.616;2023-06-22T04:48:50;95316.72;;;23.20;59.87
9225;BME280;4647;48.072;11.616;2023-06-22T04:51:18;95314.72;;;23.64;58.93
9225;BME280;4647;48.072;11.616;2023-06-22T04:53:47;95322.63;;;23.87;58.62
9225;BME280;4647;48.072;11.616;2023-06-22T04:56:15;95322.03;;;24.15;58.03
9225;BME280;4647;48.072;11.616;2023-06-22T04:58:44;95294.69;;;23.37;60.09
9225;BME280;4647;48.072;11.616;2023-06-22T05:01:12;95305.84;;;23.17;61.22
9225;BME280;4647;48.072;11.616;2023-06-22T05:03:43;95308.94;;;22.93;61.84
9225;BME280;4647;48.072;11.616;2023-06-22T05:06:11;95286.84;;;23.30;60.84
9225;BME280;4647;48.072;11.616;2023-06-22T05:08:40;95300.69;;;24.32;58.28
9225;BME280;4647;48.072;11.616;2023-06-22T05:11:09;95301.22;;;24.47;57.48
9225;BME280;4647;48.072;11.616;2023-06-22T05:13:37;95285.16;;;24.63;57.20
9225;BME280;4647;48.072;11.616;2023-06-22T05:16:05;95285.84;;;24.35;57.58
9225;BME280;4647;48.072;11.616;2023-06-22T05:18:34;95286.63;;;23.34;60.96
9225;BME280;4647;48.072;11.616;2023-06-22T05:21:05;95290.31;;;24.22;58.69
9225;BME280;4647;48.072;11.616;2023-06-22T05:23:33;95285.16;;;24.63;57.00
9225;BME280;4647;48.072;11.616;2023-06-22T05:26:02;95300.56;;;24.04;58.66
9225;BME280;4647;48.072;11.616;2023-06-22T05:28:30;95282.00;;;24.16;58.22
9225;BME280;4647;48.072;11.616;2023-06-22T05:30:59;95276.81;;;24.57;57.10
9225;BME280;4647;48.072;11.616;2023-06-22T05:33:27;95294.16;;;25.75;53.75
9225;BME280;4647;48.072;11.616;2023-06-22T05:35:56;95286.53;;;26.50;51.94
9225;BME280;4647;48.072;11.616;2023-06-22T05:38:27;95276.72;;;26.38;51.34
9225;BME280;4647;48.072;11.616;2023-06-22T05:40:55;95288.78;;;25.94;53.08
9225;BME280;4647;48.072;11.616;2023-06-22T05:43:24;95261.22;;;25.21;54.57
9225;BME280;4647;48.072;11.616;2023-06-22T05:45:52;95291.38;;;25.81;53.67
9225;BME280;4647;48.072;11.616;2023-06-22T05:48:21;95287.03;;;25.91;52.81
9225;BME280;4647;48.072;11.616;2023-06-22T05:50:50;95273.50;;;26.23;52.04
9225;BME280;4647;48.072;11.616;2023-06-22T05:53:19;95284.59;;;26.28;51.82
9225;BME280;4647;48.072;11.616;2023-06-22T05:55:50;95288.34;;;26.37;51.95
9225;BME280;4647;48.072;11.616;2023-06-22T05:58:18;95303.81;;;26.21;52.27
9225;BME280;4647;48.072;11.616;2023-06-22T06:00:47;95295.75;;;27.05;50.14
9225;BME280;4647;48.072;11.616;2023-06-22T06:03:15;95317.56;;;26.49;51.60
9225;BME280;4647;48.072;11.616;2023-06-22T06:05:45;95299.31;;;26.65;50.29
9225;BME280;4647;48.072;11.616;2023-06-22T06:08:13;95306.75;;;26.45;51.15
9225;BME280;4647;48.072;11.616;2023-06-22T06:10:42;95290.88;;;25.71;52.88
9225;BME280;4647;48.072;11.616;2023-06-22T06:13:13;95289.69;;;25.33;53.68
9225;BME280;4647;48.072;11.616;2023-06-22T06:15:41;95292.72;;;24.90;55.48
9225;BME280;4647;48.072;11.616;2023-06-22T06:18:10;95283.13;;;24.80;56.75
9225;BME280;4647;48.072;11.616;2023-06-22T06:20:38;95288.66;;;24.80;56.33
9225;BME280;4647;48.072;11.616;2023-06-22T06:23:07;95281.13;;;24.75;56.49
9225;BME280;4647;48.072;11.616;2023-06-22T06:25:35;95288.16;;;24.59;56.74
9225;BME280;4647;48.072;11.616;2023-06-22T06:28:04;95281.88;;;24.98;55.82
9225;BME280;4647;48.072;11.616;2023-06-22T06:30:35;95288.72;;;25.08;55.66
9225;BME280;4647;48.072;11.616;2023-06-22T06:33:06;95297.00;;;25.42;54.54
9225;BME280;4647;48.072;11.616;2023-06-22T06:35:34;95281.56;;;25.52;53.96
9225;BME280;4647;48.072;11.616;2023-06-22T06:38:03;95273.03;;;25.44;54.03
9225;BME280;4647;48.072;11.616;2023-06-22T06:40:32;95274.53;;;25.56;53.70
9225;BME280;4647;48.072;11.616;2023-06-22T06:43:00;95275.03;;;25.49;53.45
9225;BME280;4647;48.072;11.616;2023-06-22T06:45:29;95252.13;;;25.32;53.86
9225;BME280;4647;48.072;11.616;2023-06-22T06:48:02;95264.63;;;25.83;52.64
9225;BME280;4647;48.072;11.616;2023-06-22T06:50:31;95280.84;;;26.20;51.84
9225;BME280;4647;48.072;11.616;2023-06-22T06:52:59;95275.75;;;26.24;51.82
9225;BME280;4647;48.072;11.616;2023-06-22T06:55:28;95265.44;;;26.19;51.53
9225;BME280;4647;48.072;11.616;2023-06-22T06:57:58;95241.59;;;25.94;51.51
9225;BME280;4647;48.072;11.616;2023-06-22T07:00:27;95265.78;;;26.05;52.11
9225;BME280;4647;48.072;11.616;2023-06-22T07:02:55;95270.19;;;25.72;52.33
9225;BME280;4647;48.072;11.616;2023-06-22T07:05:26;95273.88;;;26.03;51.49
9225;BME280;4647;48.072;11.616;2023-06-22T07:07:55;95285.53;;;26.42;50.37
9225;BME280;4647;48.072;11.616;2023-06-22T07:10:25;95279.28;;;26.30;50.59
9225;BME280;4647;48.072;11.616;2023-06-22T07:12:53;95277.78;;;26.29;51.11
9225;BME280;4647;48.072;11.616;2023-06-22T07:15:22;95271.88;;;26.44;50.72
9225;BME280;4647;48.072;11.616;2023-06-22T07:17:52;95275.66;;;26.47;50.41
9225;BME280;4647;48.072;11.616;2023-06-22T07:20:21;95277.88;;;26.59;50.64
9225;BME280;4647;48.072;11.616;2023-06-22T07:22:52;95277.13;;;26.89;49.02
9225;BME280;4647;48.072;11.616;2023-06-22T07:25:20;95267.91;;;26.75;49.38
9225;BME280;4647;48.072;11.616;2023-06-22T07:27:58;95271.28;;;26.92;49.33
9225;BME280;4647;48.072;11.616;2023-06-22T07:30:27;95278.06;;;26.97;49.09
9225;BME280;4647;48.072;11.616;2023-06-22T07:32:57;95257.72;;;26.83;49.35
9225;BME280;4647;48.072;11.616;2023-06-22T07:35:29;95262.31;;;27.11;48.33
9225;BME280;4647;48.072;11.616;2023-06-22T07:38:01;95251.84;;;27.23;47.74
9225;BME280;4647;48.072;11.616;2023-06-22T07:40:29;95248.78;;;27.26;48.04
9225;BME280;4647;48.072;11.616;2023-06-22T07:42:58;95256.59;;;26.98;48.75
9225;BME280;4647;48.072;11.616;2023-06-22T07:45:27;95250.50;;;27.53;47.57
9225;BME280;4647;48.072;11.616;2023-06-22T07:47:58;95247.28;;;27.74;46.69
9225;BME280;4647;48.072;11.616;2023-06-22T07:50:27;95238.69;;;27.47;47.27
9225;BME280;4647;48.072;11.616;2023-06-22T07:52:56;95243.53;;;27.41;47.38
9225;BME280;4647;48.072;11.616;2023-06-22T07:55:28;95244.25;;;27.23;47.93
9225;BME280;4647;48.072;11.616;2023-06-22T07:57:59;95246.06;;;27.69;47.11
9225;BME280;4647;48.072;11.616;2023-06-22T08:00:27;95241.03;;;27.87;46.15
9225;BME280;4647;48.072;11.616;2023-06-22T08:02:56;95257.91;;;27.75;46.40
9225;BME280;4647;48.072;11.616;2023-06-22T08:05:24;95253.47;;;28.04;45.48
9225;BME280;4647;48.072;11.616;2023-06-22T08:07:53;95249.28;;;27.98;45.99
9225;BME280;4647;48.072;11.616;2023-06-22T08:10:22;95249.91;;;27.85;45.78
9225;BME280;4647;48.072;11.616;2023-06-22T08:12:53;95248.41;;;27.84;45.92
9225;BME280;4647;48.072;11.616;2023-06-22T08:15:21;95252.16;;;28.30;44.71
9225;BME280;4647;48.072;11.616;2023-06-22T08:17:50;95247.53;;;28.51;44.00
9225;BME280;4647;48.072;11.616;2023-06-22T08:20:18;95238.50;;;28.64;43.89
9225;BME280;4647;48.072;11.616;2023-06-22T08:22:47;95238.66;;;28.53;44.18
9225;BME280;4647;48.072;11.616;2023-06-22T08:25:15;95235.75;;;28.77;43.97
9225;BME280;4647;48.072;11.616;2023-06-22T08:27:45;95230.81;;;28.83;43.43
9225;BME280;4647;48.072;11.616;2023-06-22T08:30:17;95236.38;;;28.83;43.12
9225;BME280;4647;48.072;11.616;2023-06-22T08:32:46;95239.38;;;29.04;42.08
9225;BME280;4647;48.072;11.616;2023-06-22T08:35:14;95231.91;;;29.12;42.27
9225;BME280;4647;48.072;11.616;2023-06-22T08:37:43;95228.34;;;29.12;41.75
9225;BME280;4647;48.072;11.616;2023-06-22T08:40:21;95235.06;;;29.48;41.13
9225;BME280;4647;48.072;11.616;2023-06-22T08:42:49;95232.75;;;30.00;39.94
9225;BME280;4647;48.072;11.616;2023-06-22T08:45:21;95230.66;;;30.06;39.71
9225;BME280;4647;48.072;11.616;2023-06-22T08:47:50;95234.38;;;30.21;39.80
9225;BME280;4647;48.072;11.616;2023-06-22T08:50:18;95235.50;;;30.39;38.97
9225;BME280;4647;48.072;11.616;2023-06-22T08:52:46;95229.44;;;30.48;39.56
9225;BME280;4647;48.072;11.616;2023-06-22T08:55:15;95228.34;;;30.51;38.73
9225;BME280;4647;48.072;11.616;2023-06-22T08:57:43;95224.69;;;30.57;39.23
9225;BME280;4647;48.072;11.616;2023-06-22T09:00:13;95218.66;;;30.32;39.63
9225;BME280;4647;48.072;11.616;2023-06-22T09:02:48;95234.69;;;30.86;38.50
9225;BME280;4647;48.072;11.616;2023-06-22T09:05:16;95229.91;;;31.15;37.39
9225;BME280;4647;48.072;11.616;2023-06-22T09:07:47;95227.50;;;30.98;37.23
9225;BME280;4647;48.072;11.616;2023-06-22T09:10:15;95230.09;;;30.75;37.83
9225;BME280;4647;48.072;11.616;2023-06-22T09:12:44;95224.84;;;31.13;37.03
9225;BME280;4647;48.072;11.616;2023-06-22T09:15:13;95224.84;;;31.13;37.32
9225;BME280;4647;48.072;11.616;2023-06-22T09:17:41;95223.00;;;31.37;37.57
9225;BME280;4647;48.072;11.616;2023-06-22T09:20:14;95221.13;;;31.39;37.45
9225;BME280;4647;48.072;11.616;2023-06-22T09:22:43;95218.84;;;31.30;37.75
9225;BME280;4647;48.072;11.616;2023-06-22T09:25:11;95218.78;;;31.23;37.48
9225;BME280;4647;48.072;11.616;2023-06-22T09:27:40;95218.59;;;31.49;36.86
9225;BME280;4647;48.072;11.616;2023-06-22T09:30:11;95216.25;;;30.91;36.80
9225;BME280;4647;48.072;11.616;2023-06-22T09:32:40;95209.09;;;31.03;37.09
9225;BME280;4647;48.072;11.616;2023-06-22T09:35:09;95215.88;;;31.64;36.21
9225;BME280;4647;48.072;11.616;2023-06-22T09:37:42;95208.41;;;31.67;36.56
9225;BME280;4647;48.072;11.616;2023-06-22T09:40:11;95213.59;;;31.84;36.35
9225;BME280;4647;48.072;11.616;2023-06-22T09:42:42;95213.84;;;32.01;36.34
9225;BME280;4647;48.072;11.616;2023-06-22T09:45:13;95210.66;;;31.68;36.89
9225;BME280;4647;48.072;11.616;2023-06-22T09:47:41;95205.19;;;31.91;36.92
9225;BME280;4647;48.072;11.616;2023-06-22T09:50:10;95210.63;;;31.89;36.47
9225;BME280;4647;48.072;11.616;2023-06-22T09:52:41;95199.66;;;32.58;34.69
9225;BME280;4647;48.072;11.616;2023-06-22T09:55:12;95184.22;;;32.21;35.65
9225;BME280;4647;48.072;11.616;2023-06-22T09:57:41;95196.06;;;32.42;34.58
9225;BME280;4647;48.072;11.616;2023-06-22T10:00:11;95187.88;;;32.59;34.37
9225;BME280;4647;48.072;11.616;2023-06-22T10:02:41;95185.66;;;32.65;33.70
9225;BME280;4647;48.072;11.616;2023-06-22T10:05:10;95186.16;;;32.49;33.85
9225;BME280;4647;48.072;11.616;2023-06-22T10:07:41;95187.50;;;32.78;32.95
9225;BME280;4647;48.072;11.616;2023-06-22T10:10:10;95185.66;;;32.65;32.58
9225;BME280;4647;48.072;11.616;2023-06-22T10:12:42;95182.31;;;33.13;31.41
9225;BME280;4647;48.072;11.616;2023-06-22T10:15:11;95183.25;;;32.92;33.39
9225;BME280;4647;48.072;11.616;2023-06-22T10:17:40;95181.16;;;32.78;32.06
9225;BME280;4647;48.072;11.616;2023-06-22T10:20:09;95175.88;;;32.44;32.34
9225;BME280;4647;48.072;11.616;2023-06-22T10:22:43;95170.84;;;32.42;33.94
9225;BME280;4647;48.072;11.616;2023-06-22T10:25:13;95169.16;;;32.62;32.25
9225;BME280;4647;48.072;11.616;2023-06-22T10:27:41;95161.31;;;32.68;33.21
9225;BME280;4647;48.072;11.616;2023-06-22T10:30:11;95175.91;;;32.74;33.46
9225;BME280;4647;48.072;11.616;2023-06-22T10:32:41;95177.56;;;32.47;34.22
9225;BME280;4647;48.072;11.616;2023-06-22T10:35:10;95172.38;;;32.66;33.64
9225;BME280;4647;48.072;11.616;2023-06-22T10:37:44;95160.22;;;33.02;32.65
9225;BME280;4647;48.072;11.616;2023-06-22T10:40:14;95155.47;;;33.57;31.54
9225;BME280;4647;48.072;11.616;2023-06-22T10:42:44;95152.78;;;33.75;30.89
9225;BME280;4647;48.072;11.616;2023-06-22T10:45:12;95162.78;;;33.61;31.37
9225;BME280;4647;48.072;11.616;2023-06-22T10:47:41;95151.69;;;33.70;30.62
9225;BME280;4647;48.072;11.616;2023-06-22T10:50:10;95151.16;;;33.56;31.46
9225;BME280;4647;48.072;11.616;2023-06-22T10:52:39;95155.75;;;32.99;31.92
9225;BME280;4647;48.072;11.616;2023-06-22T10:55:11;95142.41;;;33.22;31.69
9225;BME280;4647;48.072;11.616;2023-06-22T10:57:39;95148.16;;;33.54;32.18
9225;BME280;4647;48.072;11.616;2023-06-22T11:00:14;95139.22;;;33.96;30.97
9225;BME280;4647;48.072;11.616;2023-06-22T11:02:43;95137.81;;;33.72;31.22
9225;BME280;4647;48.072;11.616;2023-06-22T11:05:11;95136.44;;;33.81;31.22
9225;BME280;4647;48.072;11.616;2023-06-22T11:07:42;95129.47;;;34.37;30.29
9225;BME280;4647;48.072;11.616;2023-06-22T11:10:14;95132.47;;;34.64;29.72
9225;BME280;4647;48.072;11.616;2023-06-22T11:12:44;95142.88;;;35.04;29.02
9225;BME280;4647;48.072;11.616;2023-06-22T11:15:13;95137.72;;;34.93;30.95
9225;BME280;4647;48.072;11.616;2023-06-22T11:17:42;95126.06;;;35.14;30.69
9225;BME280;4647;48.072;11.616;2023-06-22T11:20:11;95128.47;;;35.17;30.85
9225;BME280;4647;48.072;11.616;2023-06-22T11:22:41;95130.00;;;34.68;31.19
9225;BME280;4647;48.072;11.616;2023-06-22T11:25:10;95140.97;;;34.57;30.51
9225;BME280;4647;48.072;11.616;2023-06-22T11:27:48;95126.91;;;35.06;30.21
9225;BME280;4647;48.072;11.616;2023-06-22T11:30:18;95130.22;;;34.38;31.64
9225;BME280;4647;48.072;11.616;2023-06-22T11:32:46;95124.25;;;34.26;31.48
9225;BME280;4647;48.072;11.616;2023-06-22T11:35:15;95125.88;;;34.94;30.61
9225;BME280;4647;48.072;11.616;2023-06-22T11:37:46;95118.94;;;35.13;30.34
9225;BME280;4647;48.072;11.616;2023-06-22T11:40:14;95117.78;;;35.16;29.85
9225;BME280;4647;48.072;11.616;2023-06-22T11:42:46;95106.41;;;34.89;30.48
9225;BME280;4647;48.072;11.616;2023-06-22T11:45:14;95111.22;;;34.71;29.95
9225;BME280;4647;48.072;11.616;2023-06-22T11:47:44;95103.13;;;35.17;29.59
9225;BME280;4647;48.072;11.616;2023-06-22T11:50:12;95094.75;;;35.10;29.95
9225;BME280;4647;48.072;11.616;2023-06-22T11:52:41;95087.75;;;35.35;29.30
9225;BME280;4647;48.072;11.616;2023-06-22T11:55:10;95100.91;;;35.33;29.46
9225;BME280;4647;48.072;11.616;2023-06-22T11:57:56;95098.69;;;34.89;30.02
9225;BME280;4647;48.072;11.616;2023-06-22T12:00:28;95091.66;;;34.73;30.41
9225;BME280;4647;48.072;11.616;2023-06-22T12:02:57;95098.56;;;34.80;29.79
9225;BME280;4647;48.072;11.616;2023-06-22T12:05:25;95095.00;;;35.21;29.28
9225;BME280;4647;48.072;11.616;2023-06-22T12:07:55;95093.09;;;35.24;28.90
9225;BME280;4647;48.072;11.616;2023-06-22T12:10:26;95090.19;;;35.14;29.58
9225;BME280;4647;48.072;11.616;2023-06-22T12:13:01;95084.78;;;34.66;29.64
9225;BME280;4647;48.072;11.616;2023-06-22T12:15:29;95085.81;;;34.78;29.67
9225;BME280;4647;48.072;11.616;2023-06-22T12:17:58;95070.91;;;35.11;29.22
9225;BME280;4647;48.072;11.616;2023-06-22T12:20:26;95077.97;;;35.36;29.18
9225;BME280;4647;48.072;11.616;2023-06-22T12:22:55;95071.78;;;34.96;30.04
9225;BME280;4647;48.072;11.616;2023-06-22T12:25:24;95070.16;;;35.27;29.34
9225;BME280;4647;48.072;11.616;2023-06-22T12:27:56;95061.53;;;35.25;28.25
9225;BME280;4647;48.072;11.616;2023-06-22T12:30:27;95053.16;;;35.00;28.81
9225;BME280;4647;48.072;11.616;2023-06-22T12:32:56;95060.53;;;35.30;28.60
9225;BME280;4647;48.072;11.616;2023-06-22T12:35:24;95049.84;;;35.63;28.52
9225;BME280;4647;48.072;11.616;2023-06-22T12:37:55;95050.25;;;35.60;27.48
9225;BME280;4647;48.072;11.616;2023-06-22T12:40:24;95040.63;;;36.07;26.88
9225;BME280;4647;48.072;11.616;2023-06-22T12:42:53;95042.81;;;35.99;26.93
9225;BME280;4647;48.072;11.616;2023-06-22T12:45:23;95033.25;;;35.94;26.75
9225;BME280;4647;48.072;11.616;2023-06-22T12:47:57;95031.13;;;36.12;26.79
9225;BME280;4647;48.072;11.616;2023-06-22T12:50:26;95034.94;;;35.97;26.62
9225;BME280;4647;48.072;11.616;2023-06-22T12:52:54;95026.22;;;36.13;26.08
9225;BME280;4647;48.072;11.616;2023-06-22T12:55:27;95027.31;;;36.64;25.21
9225;BME280;4647;48.072;11.616;2023-06-22T12:57:57;95036.03;;;37.04;24.50
9225;BME280;4647;48.072;11.616;2023-06-22T13:00:26;95030.13;;;37.39;23.91
9225;BME280;4647;48.072;11.616;2023-06-22T13:03:00;95029.38;;;37.29;25.01
9225;BME280;4647;48.072;11.616;2023-06-22T13:05:29;95034.72;;;37.73;25.50
9225;BME280;4647;48.072;11.616;2023-06-22T13:08:00;95018.78;;;37.00;27.49
9225;BME280;4647;48.072;11.616;2023-06-22T13:10:28;95039.09;;;35.96;29.87
9225;BME280;4647;48.072;11.616;2023-06-22T13:12:57;95031.47;;;35.89;29.90
9225;BME280;4647;48.072;11.616;2023-06-22T13:15:26;95027.06;;;35.52;30.31
9225;BME280;4647;48.072;11.616;2023-06-22T13:18:00;95032.81;;;35.71;30.21
9225;BME280;4647;48.072;11.616;2023-06-22T13:20:28;95026.22;;;36.13;29.65
9225;BME280;4647;48.072;11.616;2023-06-22T13:22:57;95024.22;;;34.83;31.52